Latest Weather Observations for Minlaton Airport

IDS60801

Issued at 8:41 pm CDT Sunday 24 January 2021 (issued every 10 minutes, with the page automatically refreshed every 10 minutes)

About weather observations | Map of weather stations | Latest weather observations for SA | Other Formats
Station Details ID: 022031 Name: MINLATON AERO Lat: -34.75 Lon: 137.53 Height: 32.0 m
Data from the previous 72 hours. | See also: Recent months at Minlaton Airport
Date/Time
CDT
Temp
°C
App
Temp
°C
Dew
Point
°C
Rel
Hum
%
Delta-T
°C
Wind Press
QNH
hPa
Press
MSL
hPa
Rain since
9am
mm
Dir  Spd
km/h
Gust
km/h
Spd
kts
Gust
kts
24/08:30pm 31.0 27.2 3.9 18 14.0 S 13 15 7 8 1001.6 1001.4 0.0
24/08:00pm 33.6 29.5 4.3 16 15.4 SE 15 17 8 9 1001.5 1001.3 0.0
24/07:30pm 35.7 30.6 3.0 13 17.1 SW 19 26 10 14 1001.2 1001.0 0.0
24/07:00pm 36.6 31.2 2.6 12 17.7 WSW 20 26 11 14 1001.2 1001.0 0.0
24/06:30pm 33.1 28.6 7.1 20 14.3 WSW 20 26 11 14 1001.3 1001.1 0.0
24/06:00pm 35.5 30.2 4.9 15 16.5 WSW 22 28 12 15 1001.3 1001.1 0.0
24/05:30pm 35.2 28.7 4.7 15 16.3 WSW 28 32 15 17 1001.5 1001.3 0.0
24/05:00pm 35.4 29.3 6.6 17 15.8 WSW 28 35 15 19 1001.6 1001.4 0.0
24/04:30pm 33.2 28.5 10.5 25 13.2 WSW 26 35 14 19 1001.8 1001.6 0.0
24/04:00pm 33.3 28.6 9.4 23 13.6 WSW 24 33 13 18 1001.9 1001.7 0.0
24/03:30pm 35.4 29.7 8.3 19 15.4 W 28 35 15 19 1002.0 1001.8 0.0
24/03:00pm 35.8 29.4 8.6 19 15.5 NNW 32 43 17 23 1002.1 1001.9 0.0
24/02:59pm 35.7 29.1 7.7 18 15.7 NNW 32 43 17 23 1002.1 1001.9 0.0
24/02:30pm 40.7 32.0 1.7 9 20.6 NNW 37 46 20 25 1002.2 1002.0 0.0
24/02:00pm 40.6 31.8 1.6 9 20.4 NNW 37 46 20 25 1002.6 1002.4 0.0
24/01:30pm 39.9 31.1 1.1 9 20.2 NNW 37 46 20 25 1002.9 1002.7 0.0
24/01:00pm 41.0 32.3 1.9 9 20.6 N 37 48 20 26 1003.2 1003.0 0.0
24/12:30pm 38.9 28.9 -1.3 8 20.0 N 41 54 22 29 1003.6 1003.4 0.0
24/12:00pm 39.4 29.1 -0.9 8 20.3 NNW 43 56 23 30 1003.8 1003.6 0.0
24/11:30am 40.0 30.2 -0.5 8 20.6 N 41 54 22 29 1004.0 1003.8 0.0
24/11:00am 39.9 29.8 -2.4 7 20.8 N 41 54 22 29 1004.1 1003.9 0.0
24/10:30am 39.3 29.2 -2.8 7 20.5 N 41 50 22 27 1004.0 1003.8 0.0
24/10:00am 38.2 29.7 -3.6 7 19.9 N 32 41 17 22 1004.2 1004.0 0.0
24/09:30am 35.7 27.2 -3.6 8 18.5 NNE 32 41 17 22 1004.3 1004.1 0.0
24/09:00am 34.2 25.5 -3.2 9 17.5 NNE 33 39 18 21 1004.3 1004.1 0.0
24/08:30am 32.8 24.2 -2.8 10 16.6 NE 33 43 18 23 1004.2 1004.0 0.0
24/08:00am 32.1 23.0 -3.3 10 16.2 NE 35 46 19 25 1004.2 1004.0 0.0
24/07:30am 31.4 22.0 -2.6 11 15.8 NE 37 46 20 25 1004.0 1003.8 0.0
24/07:00am 30.1 21.5 -2.4 12 14.9 NE 33 41 18 22 1003.8 1003.6 0.0
24/06:30am 28.9 21.4 -1.2 14 14.0 ENE 28 35 15 19 1003.7 1003.5 0.0
24/06:00am 28.9 21.4 -1.2 14 14.0 NE 28 35 15 19 1003.7 1003.5 0.0
24/05:30am 29.2 21.4 -1.0 14 14.2 NE 30 35 16 19 1003.5 1003.3 0.0
24/05:00am 29.8 21.7 -0.5 14 14.3 NE 32 41 17 22 1003.5 1003.3 0.0
24/04:30am 29.7 21.5 0.3 15 14.2 NE 33 43 18 23 1003.6 1003.4 0.0
24/04:00am 29.6 21.8 2.8 18 13.4 NE 33 43 18 23 1003.7 1003.5 0.0
24/03:30am 29.7 21.8 4.4 20 13.1 ENE 35 44 19 24 1003.8 1003.6 0.0
24/03:00am 29.3 21.4 6.0 23 12.3 NE 37 48 20 26 1004.1 1003.9 0.0
24/02:30am 29.5 22.2 5.6 22 12.6 NE 33 43 18 23 1004.3 1004.1 0.0
24/02:00am 29.6 22.0 5.6 22 12.6 ENE 35 43 19 23 1004.4 1004.2 0.0
24/01:30am 28.5 21.7 7.1 26 11.5 NE 32 39 17 21 1004.8 1004.6 0.0
24/01:00am 27.9 22.0 7.7 28 10.9 ENE 28 33 15 18 1005.3 1005.1 0.0
24/12:30am 27.7 21.7 8.6 30 10.5 ENE 30 35 16 19 1005.7 1005.5 0.0
24/12:00am 26.9 21.2 8.4 31 10.1 E 28 32 15 17 1006.1 1005.9 0.0
 
Date/Time
CDT
Temp
°C
App
Temp
°C
Dew
Point
°C
Rel
Hum
%
Delta-T
°C
Wind Press
QNH
hPa
Press
MSL
hPa
Rain since
9am
mm
Dir  Spd
km/h
Gust
km/h
Spd
kts
Gust
kts
23/11:30pm 26.7 22.0 9.1 33 9.7 E 24 30 13 16 1006.5 1006.4 0.0
23/11:00pm 26.7 21.8 8.6 32 9.8 E 24 26 13 14 1006.9 1006.8 0.0
23/10:30pm 26.4 21.5 6.9 29 10.3 E 22 26 12 14 1007.0 1006.9 0.0
23/10:00pm 26.4 21.4 4.8 25 11.0 E 20 22 11 12 1007.1 1007.0 0.0
23/09:30pm 27.0 21.5 2.1 20 12.1 E 20 24 11 13 1007.1 1007.0 0.0
23/09:00pm 28.1 22.4 -0.9 15 13.5 E 19 20 10 11 1006.9 1006.8 0.0
23/08:30pm 30.4 24.5 -2.2 12 15.1 E 19 20 10 11 1006.8 1006.7 0.0
23/08:00pm 32.6 27.2 -1.7 11 16.2 ESE 17 20 9 11 1006.7 1006.6 0.0
23/07:30pm 34.5 28.3 -2.9 9 17.6 SE 20 26 11 14 1006.7 1006.6 0.0
23/07:00pm 36.2 30.0 -3.3 8 18.7 SE 20 26 11 14 1006.4 1006.3 0.0
23/06:30pm 37.5 31.6 -2.3 8 19.3 SE 19 26 10 14 1006.3 1006.1 0.0
23/06:00pm 38.1 31.6 -5.7 6 20.3 WSW 20 26 11 14 1006.5 1006.4 0.0
23/05:30pm 38.1 31.6 -5.7 6 20.3 WSW 20 24 11 13 1006.5 1006.4 0.0
23/05:00pm 38.4 32.9 -5.5 6 20.4 W 15 20 8 11 1006.4 1006.3 0.0
23/04:30pm 38.8 32.9 -5.2 6 20.6 W 17 20 9 11 1006.6 1006.5 0.0
23/04:00pm 38.8 32.9 -5.2 6 20.5 W 17 24 9 13 1006.8 1006.7 0.0
23/03:30pm 38.5 32.6 -5.4 6 20.4 W 17 24 9 13 1007.1 1007.0 0.0
23/03:00pm 38.5 32.6 -5.4 6 20.4 W 17 26 9 14 1007.4 1007.3 0.0
23/02:30pm 37.7 31.4 -6.0 6 20.0 W 19 28 10 15 1007.7 1007.6 0.0
23/02:00pm 38.3 32.2 -3.5 7 20.0 W 19 24 10 13 1008.0 1007.9 0.0
23/01:30pm 36.8 30.6 -2.8 8 19.0 W 20 28 11 15 1008.2 1008.1 0.0
23/01:00pm 37.0 32.0 -1.1 9 18.7 W 15 20 8 11 1008.2 1008.1 0.0
23/12:30pm 36.5 30.7 -1.4 9 18.5 W 19 22 10 12 1008.8 1008.7 0.0
23/12:00pm 36.3 30.1 -0.2 10 18.2 WNW 22 28 12 15 1008.8 1008.7 0.0
23/11:30am 36.9 31.3 -2.7 8 19.0 NNE 17 24 9 13 1009.1 1009.0 0.0
23/11:00am 34.8 28.5 -1.3 10 17.4 NNE 22 26 12 14 1009.4 1009.3 0.0
23/10:30am 34.3 28.3 -3.1 9 17.5 NNE 19 26 10 14 1009.5 1009.4 0.0
23/10:00am 32.4 26.0 -4.5 9 16.6 NE 20 28 11 15 1009.7 1009.6 0.0
23/09:30am 31.1 24.0 -4.1 10 15.8 ENE 24 30 13 16 1009.5 1009.4 0.0
23/09:00am 29.5 21.2 -5.3 10 15.1 ENE 30 37 16 20 1009.3 1009.2 0.0
23/08:30am 27.4 19.4 -2.4 14 13.4 ENE 30 37 16 20 1009.4 1009.3 0.0
23/08:00am 25.6 19.0 -0.5 18 12.0 ENE 24 30 13 16 1009.2 1009.1 0.0
23/07:30am 21.3 16.1 7.2 40 7.3 ENE 24 28 13 15 1009.1 1009.0 0.0
23/07:00am 19.3 14.7 9.8 54 5.1 E 24 30 13 16 1008.9 1008.8 0.0
23/06:30am 18.2 13.0 10.3 60 4.2 E 28 33 15 18 1008.6 1008.5 0.0
23/06:00am 18.1 13.2 11.4 65 3.7 E 28 32 15 17 1008.7 1008.6 0.0
23/05:30am 18.1 13.3 11.7 66 3.5 E 28 32 15 17 1008.6 1008.5 0.0
23/05:00am 17.5 14.7 12.6 73 2.7 ESE 19 26 10 14 1008.7 1008.6 0.0
23/04:30am 16.3 15.4 11.5 73 2.6 ESE 7 9 4 5 1009.0 1008.9 0.0
23/04:00am 17.2 15.5 12.5 74 2.6 SE 13 17 7 9 1009.1 1009.0 0.0
23/03:30am 16.8 15.8 13.3 80 2.0 S 11 13 6 7 1009.3 1009.2 0.0
23/03:00am 17.7 15.2 13.4 76 2.4 ESE 19 22 10 12 1009.3 1009.2 0.0
23/02:30am 17.6 14.8 13.3 76 2.4 ESE 20 26 11 14 1009.5 1009.4 0.0
23/02:00am 16.8 14.9 12.9 78 2.2 SE 15 19 8 10 1010.1 1010.0 0.0
23/01:30am 16.6 15.6 12.2 75 2.4 SE 9 13 5 7 1010.5 1010.4 0.0
23/01:00am 17.4 15.2 12.1 71 2.9 SE 15 19 8 10 1010.7 1010.6 0.0
23/12:30am 17.8 15.8 11.4 66 3.5 SE 13 19 7 10 1010.6 1010.5 0.0
23/12:00am 18.3 14.6 9.4 56 4.7 SE 19 22 10 12 1010.7 1010.6 0.0
 
Date/Time
CDT
Temp
°C
App
Temp
°C
Dew
Point
°C
Rel
Hum
%
Delta-T
°C
Wind Press
QNH
hPa
Press
MSL
hPa
Rain since
9am
mm
Dir  Spd
km/h
Gust
km/h
Spd
kts
Gust
kts
22/11:30pm 19.4 15.4 6.8 44 6.4 SE 17 22 9 12 1010.8 1010.7 0.0
22/11:00pm 19.4 15.1 7.8 47 6.0 SE 20 26 11 14 1010.8 1010.7 0.0
22/10:30pm 19.4 15.6 9.0 51 5.5 SE 19 24 10 13 1011.2 1011.1 0.0
22/10:00pm 20.4 16.2 7.4 43 6.7 SE 19 26 10 14 1011.2 1011.1 0.0
22/09:30pm 21.1 16.4 5.1 35 7.9 SSE 19 24 10 13 1011.1 1011.0 0.0
22/09:00pm 22.6 17.2 2.7 27 9.5 SSE 20 24 11 13 1011.0 1010.9 0.0
22/08:30pm 24.4 18.7 3.1 25 10.4 SSE 22 30 12 16 1010.8 1010.7 0.0
22/08:00pm 26.4 20.6 2.3 21 11.7 SSE 22 30 12 16 1010.5 1010.4 0.0
22/07:30pm 28.5 23.5 3.4 20 12.6 SE 19 24 10 13 1010.3 1010.2 0.0
22/07:00pm 28.9 23.7 5.7 23 12.1 SSE 22 30 12 16 1010.1 1010.0 0.0
22/06:30pm 29.6 24.0 5.6 22 12.6 SSE 24 30 13 16 1010.0 1009.9 0.0
22/06:00pm 30.2 24.5 4.8 20 13.2 SSE 24 32 13 17 1010.0 1009.9 0.0
22/05:30pm 30.9 25.0 3.8 18 13.9 S 24 35 13 19 1010.1 1010.0 0.0
22/05:00pm 32.2 26.0 2.3 15 15.1 S 24 32 13 17 1010.2 1010.1 0.0
22/04:30pm 32.0 26.2 0.2 13 15.5 S 20 32 11 17 1010.2 1010.1 0.0
22/04:00pm 32.7 25.9 -1.6 11 16.3 S 24 35 13 19 1010.4 1010.3 0.0
22/03:30pm 32.1 25.0 1.3 14 15.3 SW 28 37 15 20 1010.7 1010.6 0.0
22/03:00pm 31.9 25.1 3.0 16 14.7 WSW 28 39 15 21 1010.7 1010.6 0.0
22/02:30pm 32.9 26.9 -2.7 10 16.6 S 19 30 10 16 1010.8 1010.7 0.0
22/02:00pm 32.8 27.2 -2.8 10 16.6 SSW 17 28 9 15 1011.1 1011.0 0.0
22/01:30pm 31.9 26.0 -2.2 11 15.9 SSW 19 30 10 16 1011.3 1011.2 0.0
22/01:00pm 32.2 26.5 -0.8 12 15.8 SSW 19 30 10 16 1011.3 1011.2 0.0
22/12:30pm 31.6 26.2 -1.2 12 15.5 SSW 17 26 9 14 1011.5 1011.4 0.0
22/12:00pm 30.6 25.3 -0.9 13 14.9 S 17 24 9 13 1011.7 1011.6 0.0
22/11:30am 30.2 26.1 2.5 17 13.8 SSE 13 20 7 11 1011.8 1011.7 0.0
22/11:00am 28.6 24.5 4.2 21 12.4 S 15 24 8 13 1012.0 1011.9 0.0
22/10:30am 28.2 24.6 5.1 23 11.9 S 13 20 7 11 1012.1 1012.0 0.0
22/10:00am 26.7 23.5 5.1 25 11.0 SSE 11 15 6 8 1012.0 1011.9 0.0
22/09:30am 25.6 22.6 5.8 28 10.2 SSW 11 15 6 8 1012.1 1012.0 0.0
22/09:00am 24.3 21.9 7.0 33 9.0 SE 9 11 5 6 1011.8 1011.7 0.0
22/08:30am 21.7 19.7 11.4 52 5.7 SE 13 17 7 9 1011.7 1011.6 0.0
22/08:00am 19.3 18.7 15.6 79 2.2 SSE 13 19 7 10 1011.8 1011.7 0.0
22/07:30am 16.1 15.7 13.0 82 1.7 S 7 11 4 6 1011.7 1011.6 0.0
22/07:00am 14.6 13.4 11.6 82 1.6 SE 9 13 5 7 1011.1 1011.0 0.0
22/06:30am 14.0 10.9 11.7 86 1.2 SE 19 20 10 11 1010.5 1010.4 0.0
22/06:00am 13.6 10.7 11.1 85 1.3 SE 17 19 9 10 1010.4 1010.3 0.0
22/05:30am 13.1 10.5 10.6 85 1.3 SSE 15 17 8 9 1010.5 1010.4 0.0
22/05:00am 13.2 11.0 10.7 85 1.3 SSE 13 15 7 8 1010.3 1010.2 0.0
22/04:30am 12.9 10.1 10.1 83 1.4 SSE 15 15 8 8 1010.2 1010.1 0.0
22/04:00am 13.1 10.1 10.5 84 1.4 SE 17 17 9 9 1009.9 1009.8 0.0
22/03:30am 12.1 9.5 9.5 84 1.3 S 13 15 7 8 1010.2 1010.1 0.0
22/03:00am 13.2 11.7 9.1 76 2.1 SW 7 15 4 8 1010.2 1010.1 0.0
22/02:30am 16.0 14.3 11.2 73 2.6 SSE 11 15 6 8 1010.0 1009.9 0.0
22/02:00am 17.1 13.5 10.5 65 3.5 ESE 20 24 11 13 1010.1 1010.0 0.0
22/01:30am 17.2 13.7 10.3 64 3.7 E 19 20 10 11 1010.1 1010.0 0.0
22/01:00am 17.9 13.6 10.8 63 3.8 ESE 24 28 13 15 1010.2 1010.1 0.0
22/12:30am 18.3 13.7 11.1 63 3.9 ESE 26 32 14 17 1010.1 1010.0 0.0
22/12:00am 18.4 14.2 11.2 63 3.9 ESE 24 28 13 15 1010.5 1010.4 0.0
 
Date/Time
CDT
Temp
°C
App
Temp
°C
Dew
Point
°C
Rel
Hum
%
Delta-T
°C
Wind Press
QNH
hPa
Press
MSL
hPa
Rain since
9am
mm
Dir  Spd
km/h
Gust
km/h
Spd
kts
Gust
kts
21/11:30pm 18.8 14.2 9.8 56 4.8 ESE 24 30 13 16 1010.5 1010.4 0.0
21/11:00pm 19.6 14.4 8.9 50 5.6 ESE 26 32 14 17 1010.7 1010.6 0.0
21/10:30pm 20.4 15.3 7.7 44 6.6 SE 24 30 13 16 1010.8 1010.7 0.0
21/10:00pm 21.3 16.3 7.9 42 7.0 SE 24 30 13 16 1011.1 1011.0 0.0
21/09:30pm 21.1 16.5 6.6 39 7.4 SSE 20 24 11 13 1010.9 1010.8 0.0
21/09:00pm 21.6 16.5 3.3 30 8.8 SSE 19 20 10 11 1010.7 1010.6 0.0

Other formats

Comma delimited format used in spreadsheet applications
http://www.bom.gov.au/fwo/IDS60801/IDS60801.95659.axf

JavaScript Object Notation format (JSON) in row-major order
http://www.bom.gov.au/fwo/IDS60801/IDS60801.95659.json

Data quality

Most of these data are generated automatically and are frequently updated. Quality checks on data are not normally performed. It is possible for incorrect values to appear. Refer to information at About Latest Weather Observations and please check the disclaimer before using these data.